Paraburdoo, Western Australia

10:07 AM WST on September 03, 2014 (GMT +0800)
APRSWXNET | Change Station
CLOSE
Current Station
Personal Weather Station
Location: Paraburdoo, WE
Elevation: 1274 ft
Nearby Weather Stations

Elev 1274 ft 23.20 °S, 117.67 °E | Updated 2 days ago

Clear
Clear
82 °F
Feels Like 82 °F
N
1
Wind Variable Wind from ENE
Gusts mph

Today
High -- | Low -- °F
--% Chance of Precip.
Yesterday
High -- | Low -- °F
Precip. -- in
6:18 AM 5:59 PM
First Quarter, 57% visible
Pressure 30.09 in
Visibility 6.2 miles
Clouds
Dew Point 25 °F
Humidity 11%
Rainfall -999.00 in
Snow Depth Not available.
UV Not available.
Pollen Not available.
Air Quality Not available.
Flu Activity Not available.
METAR YPBO 030100Z AUTO 03002KT 9999 // NCD 26/M05 Q1019

More Conditions Fewer Conditions

Pressure 30.09 in
Visibility 6.2 miles
Clouds
Dew Point 25 °F
Humidity 11%
Rainfall -999.00 in
Snow Depth Not available.
UV Not available.
Pollen Not available.
Air Quality Not available.
Flu Activity Not available.
METAR YPBO 030100Z AUTO 03002KT 9999 // NCD 26/M05 Q1019

More Conditions Fewer Conditions

10-Day Weather Forecast

Almanac

Astronomy

Sep. 03, 2014 Rise Set
Actual Time 6:18 AM WST 5:59 PM WST
Civil Twilight 5:55 AM WST 6:22 PM WST
Nautical Twilight 5:29 AM WST 6:48 PM WST
Astronomical Twilight 5:03 AM WST 7:14 PM WST
Moon 12:04 PM WST 12:43 AM WST
Length of Visible Light 12h 26m
Length of Day
11h 40m
Tomorrow will be 1m 17s longer.
First Quarter, 57% of the Moon is Illuminated
Sep 2
First Quarter
Sep 8
Full
Sep 15
Last Quarter
Sep 24
New
Oct 1
First Quarter

Yesterday's Extremes

Country Highs Country Lows

Community

WunderPhotos

Upload Photos

1,749,837 photos uploaded!

Nearby

Snow Depth

Not available.

Earthquake Activity

City Distance Mag. Time & Date
No recent earthquake activity has been reported nearby.
Minimum magnitude displayed is 2.5.

Coastal Water Temperatures

Place Temperature
No Stations Reporting

Nearby Weather Stations